logo
Search for airport 
image banner adimage banner adimage banner ad
image banner ad

WMKL - Langkawi International

Located in Dataran Lang,Kuah, Malaysia

ICAO - WMKL, IATA - LGK

Data provided by Airmate  

General information

Coordinates: N6°20'22" E99°44'1"
Elevation is 23 feet MSL.
 
View others Airports in Kedah

Operational data

Special qualification required
Current time UTC:
Current local time:
Weather
METAR: WMKL 281300Z 03005KT 300V100 9999 FEW026 31/23 Q1008
TAF: TAF WMKL 281100Z 2812/2912 08003KT 9999 FEW026
View NOTAMs / SUP AIP / TFR affecting this airport [VIEW]
Communications frequencies: [VIEW]

Runways:

RWY identifierQFULength (ft)Width (ft)SurfaceLDA (ft)
0334°12510148ASP
21214°12510148ASP

Airport contact information

Address: Dataran Lang,Kuah Malaysia

Satellite view of WMKL